sensor_id;sensor_type;location;lat;lon;timestamp;P1;durP1;ratioP1;P2;durP2;ratioP2
56299;SDS011;42209;6.376;-10.782;2022-12-28T00:02:14;29.20;;;20.20;;
56299;SDS011;42209;6.376;-10.782;2022-12-28T00:04:43;31.48;;;21.70;;
56299;SDS011;42209;6.376;-10.782;2022-12-28T00:07:11;34.88;;;23.58;;
56299;SDS011;42209;6.376;-10.782;2022-12-28T00:09:39;33.25;;;22.60;;
56299;SDS011;42209;6.376;-10.782;2022-12-28T00:12:08;29.25;;;21.25;;
56299;SDS011;42209;6.376;-10.782;2022-12-28T00:14:36;30.42;;;21.42;;
56299;SDS011;42209;6.376;-10.782;2022-12-28T00:17:05;31.67;;;21.58;;
56299;SDS011;42209;6.376;-10.782;2022-12-28T00:19:33;31.42;;;22.13;;
56299;SDS011;42209;6.376;-10.782;2022-12-28T00:22:02;35.13;;;23.60;;
56299;SDS011;42209;6.376;-10.782;2022-12-28T00:24:30;32.13;;;23.75;;
56299;SDS011;42209;6.376;-10.782;2022-12-28T00:26:58;33.20;;;22.92;;
56299;SDS011;42209;6.376;-10.782;2022-12-28T00:29:27;35.00;;;24.35;;
56299;SDS011;42209;6.376;-10.782;2022-12-28T00:31:55;34.72;;;24.63;;
56299;SDS011;42209;6.376;-10.782;2022-12-28T00:34:24;33.53;;;23.10;;
56299;SDS011;42209;6.376;-10.782;2022-12-28T00:36:52;33.55;;;23.13;;
56299;SDS011;42209;6.376;-10.782;2022-12-28T00:39:37;35.88;;;24.20;;
56299;SDS011;42209;6.376;-10.782;2022-12-28T00:42:06;31.13;;;23.08;;
56299;SDS011;42209;6.376;-10.782;2022-12-28T00:44:35;31.42;;;24.02;;
56299;SDS011;42209;6.376;-10.782;2022-12-28T00:47:04;31.60;;;23.58;;
56299;SDS011;42209;6.376;-10.782;2022-12-28T00:49:32;31.50;;;21.98;;
56299;SDS011;42209;6.376;-10.782;2022-12-28T00:52:01;34.28;;;21.33;;
56299;SDS011;42209;6.376;-10.782;2022-12-28T00:54:29;29.08;;;21.27;;
56299;SDS011;42209;6.376;-10.782;2022-12-28T00:56:58;32.85;;;23.70;;
56299;SDS011;42209;6.376;-10.782;2022-12-28T00:59:26;35.92;;;26.05;;
56299;SDS011;42209;6.376;-10.782;2022-12-28T01:01:54;36.78;;;24.60;;
56299;SDS011;42209;6.376;-10.782;2022-12-28T01:04:23;35.22;;;23.20;;
56299;SDS011;42209;6.376;-10.782;2022-12-28T01:06:51;32.63;;;22.80;;
56299;SDS011;42209;6.376;-10.782;2022-12-28T01:09:19;32.78;;;22.55;;
56299;SDS011;42209;6.376;-10.782;2022-12-28T01:11:48;31.38;;;20.27;;
56299;SDS011;42209;6.376;-10.782;2022-12-28T01:14:16;28.63;;;20.52;;
56299;SDS011;42209;6.376;-10.782;2022-12-28T01:16:45;31.00;;;21.30;;
56299;SDS011;42209;6.376;-10.782;2022-12-28T01:19:15;26.77;;;19.58;;
56299;SDS011;42209;6.376;-10.782;2022-12-28T01:21:47;26.58;;;20.63;;
56299;SDS011;42209;6.376;-10.782;2022-12-28T01:24:16;29.00;;;20.25;;
56299;SDS011;42209;6.376;-10.782;2022-12-28T01:26:44;29.92;;;20.00;;
56299;SDS011;42209;6.376;-10.782;2022-12-28T01:29:13;26.83;;;19.27;;
56299;SDS011;42209;6.376;-10.782;2022-12-28T01:31:42;24.58;;;18.73;;
56299;SDS011;42209;6.376;-10.782;2022-12-28T01:34:11;27.10;;;20.00;;
56299;SDS011;42209;6.376;-10.782;2022-12-28T01:36:39;26.33;;;20.15;;
56299;SDS011;42209;6.376;-10.782;2022-12-28T01:39:08;29.10;;;19.60;;
56299;SDS011;42209;6.376;-10.782;2022-12-28T01:41:37;27.27;;;20.42;;
56299;SDS011;42209;6.376;-10.782;2022-12-28T01:46:46;24.08;;;17.88;;
56299;SDS011;42209;6.376;-10.782;2022-12-28T01:54:29;26.35;;;18.77;;
56299;SDS011;42209;6.376;-10.782;2022-12-28T01:57:09;24.30;;;18.38;;
56299;SDS011;42209;6.376;-10.782;2022-12-28T01:59:39;23.27;;;17.13;;
56299;SDS011;42209;6.376;-10.782;2022-12-28T02:02:11;24.10;;;17.30;;
56299;SDS011;42209;6.376;-10.782;2022-12-28T02:04:41;20.15;;;16.73;;
56299;SDS011;42209;6.376;-10.782;2022-12-28T02:07:18;26.17;;;17.45;;
56299;SDS011;42209;6.376;-10.782;2022-12-28T02:09:56;23.00;;;16.52;;
56299;SDS011;42209;6.376;-10.782;2022-12-28T02:12:45;22.25;;;17.50;;
56299;SDS011;42209;6.376;-10.782;2022-12-28T02:15:14;22.08;;;18.02;;
56299;SDS011;42209;6.376;-10.782;2022-12-28T02:17:49;22.90;;;16.92;;
56299;SDS011;42209;6.376;-10.782;2022-12-28T02:20:17;19.67;;;15.73;;
56299;SDS011;42209;6.376;-10.782;2022-12-28T02:23:07;21.80;;;16.52;;
56299;SDS011;42209;6.376;-10.782;2022-12-28T02:28:52;22.15;;;15.85;;
56299;SDS011;42209;6.376;-10.782;2022-12-28T02:31:41;18.77;;;16.00;;
56299;SDS011;42209;6.376;-10.782;2022-12-28T02:37:19;21.02;;;15.75;;
56299;SDS011;42209;6.376;-10.782;2022-12-28T02:40:07;23.30;;;14.95;;
56299;SDS011;42209;6.376;-10.782;2022-12-28T02:42:51;19.50;;;15.55;;
56299;SDS011;42209;6.376;-10.782;2022-12-28T02:45:39;20.83;;;15.25;;
56299;SDS011;42209;6.376;-10.782;2022-12-28T02:48:13;17.80;;;14.32;;
56299;SDS011;42209;6.376;-10.782;2022-12-28T02:50:48;17.27;;;14.98;;
56299;SDS011;42209;6.376;-10.782;2022-12-28T02:53:43;17.35;;;13.55;;
56299;SDS011;42209;6.376;-10.782;2022-12-28T02:56:37;14.93;;;12.80;;
56299;SDS011;42209;6.376;-10.782;2022-12-28T03:04:40;18.10;;;13.50;;
56299;SDS011;42209;6.376;-10.782;2022-12-28T03:10:24;21.00;;;14.65;;
56299;SDS011;42209;6.376;-10.782;2022-12-28T03:15:41;17.13;;;12.75;;
56299;SDS011;42209;6.376;-10.782;2022-12-28T03:18:12;16.55;;;13.95;;
56299;SDS011;42209;6.376;-10.782;2022-12-28T03:20:43;16.02;;;12.45;;
56299;SDS011;42209;6.376;-10.782;2022-12-28T03:23:15;18.38;;;14.18;;
56299;SDS011;42209;6.376;-10.782;2022-12-28T03:25:46;17.02;;;13.70;;
56299;SDS011;42209;6.376;-10.782;2022-12-28T03:28:22;19.17;;;14.27;;
56299;SDS011;42209;6.376;-10.782;2022-12-28T03:30:54;16.08;;;13.40;;
56299;SDS011;42209;6.376;-10.782;2022-12-28T03:33:27;16.77;;;13.30;;
56299;SDS011;42209;6.376;-10.782;2022-12-28T03:38:52;16.40;;;14.07;;
56299;SDS011;42209;6.376;-10.782;2022-12-28T03:41:39;17.63;;;14.32;;
56299;SDS011;42209;6.376;-10.782;2022-12-28T03:44:27;17.17;;;13.50;;
56299;SDS011;42209;6.376;-10.782;2022-12-28T03:47:05;17.15;;;12.95;;
56299;SDS011;42209;6.376;-10.782;2022-12-28T03:49:37;16.52;;;13.52;;
56299;SDS011;42209;6.376;-10.782;2022-12-28T03:52:08;17.58;;;12.75;;
56299;SDS011;42209;6.376;-10.782;2022-12-28T03:54:39;18.83;;;13.07;;
56299;SDS011;42209;6.376;-10.782;2022-12-28T03:57:10;17.60;;;13.60;;
56299;SDS011;42209;6.376;-10.782;2022-12-28T03:59:42;15.77;;;13.95;;
56299;SDS011;42209;6.376;-10.782;2022-12-28T04:02:11;14.40;;;12.45;;
56299;SDS011;42209;6.376;-10.782;2022-12-28T04:04:41;14.38;;;12.10;;
56299;SDS011;42209;6.376;-10.782;2022-12-28T04:07:09;17.33;;;13.50;;
56299;SDS011;42209;6.376;-10.782;2022-12-28T04:09:38;13.32;;;11.32;;
56299;SDS011;42209;6.376;-10.782;2022-12-28T04:12:08;15.23;;;11.95;;
56299;SDS011;42209;6.376;-10.782;2022-12-28T04:14:56;12.98;;;11.57;;
56299;SDS011;42209;6.376;-10.782;2022-12-28T04:17:27;13.95;;;12.05;;
56299;SDS011;42209;6.376;-10.782;2022-12-28T04:19:55;15.38;;;12.75;;
56299;SDS011;42209;6.376;-10.782;2022-12-28T04:22:23;15.05;;;11.57;;
56299;SDS011;42209;6.376;-10.782;2022-12-28T04:24:52;13.90;;;11.10;;
56299;SDS011;42209;6.376;-10.782;2022-12-28T04:27:20;15.02;;;11.73;;
56299;SDS011;42209;6.376;-10.782;2022-12-28T04:29:50;14.02;;;12.35;;
56299;SDS011;42209;6.376;-10.782;2022-12-28T04:34:46;13.40;;;12.00;;
56299;SDS011;42209;6.376;-10.782;2022-12-28T04:37:17;13.65;;;11.35;;
56299;SDS011;42209;6.376;-10.782;2022-12-28T04:39:45;15.55;;;11.93;;
56299;SDS011;42209;6.376;-10.782;2022-12-28T04:42:24;12.98;;;10.85;;
56299;SDS011;42209;6.376;-10.782;2022-12-28T04:44:53;16.27;;;12.07;;
56299;SDS011;42209;6.376;-10.782;2022-12-28T04:47:21;15.43;;;11.35;;
56299;SDS011;42209;6.376;-10.782;2022-12-28T04:49:49;10.52;;;9.43;;
56299;SDS011;42209;6.376;-10.782;2022-12-28T04:52:17;12.10;;;9.85;;
56299;SDS011;42209;6.376;-10.782;2022-12-28T04:54:46;12.45;;;11.15;;
56299;SDS011;42209;6.376;-10.782;2022-12-28T04:57:14;12.27;;;10.25;;
56299;SDS011;42209;6.376;-10.782;2022-12-28T04:59:43;12.65;;;10.30;;
56299;SDS011;42209;6.376;-10.782;2022-12-28T05:02:11;11.80;;;10.57;;
56299;SDS011;42209;6.376;-10.782;2022-12-28T05:04:39;11.80;;;10.60;;
56299;SDS011;42209;6.376;-10.782;2022-12-28T05:07:08;11.85;;;10.55;;
56299;SDS011;42209;6.376;-10.782;2022-12-28T05:09:36;11.05;;;9.93;;
56299;SDS011;42209;6.376;-10.782;2022-12-28T05:12:04;12.65;;;10.95;;
56299;SDS011;42209;6.376;-10.782;2022-12-28T05:14:32;15.48;;;9.93;;
56299;SDS011;42209;6.376;-10.782;2022-12-28T05:17:03;11.48;;;10.00;;
56299;SDS011;42209;6.376;-10.782;2022-12-28T05:19:31;12.13;;;10.57;;
56299;SDS011;42209;6.376;-10.782;2022-12-28T05:22:00;11.55;;;10.10;;
56299;SDS011;42209;6.376;-10.782;2022-12-28T05:24:28;11.73;;;9.98;;
56299;SDS011;42209;6.376;-10.782;2022-12-28T05:26:56;14.07;;;11.18;;
56299;SDS011;42209;6.376;-10.782;2022-12-28T05:29:25;10.70;;;9.60;;
56299;SDS011;42209;6.376;-10.782;2022-12-28T05:31:53;11.40;;;9.93;;
56299;SDS011;42209;6.376;-10.782;2022-12-28T05:34:21;11.07;;;9.60;;
56299;SDS011;42209;6.376;-10.782;2022-12-28T05:36:50;10.30;;;8.90;;
56299;SDS011;42209;6.376;-10.782;2022-12-28T05:39:18;10.50;;;9.30;;
56299;SDS011;42209;6.376;-10.782;2022-12-28T05:41:46;10.45;;;9.32;;
56299;SDS011;42209;6.376;-10.782;2022-12-28T05:44:14;11.98;;;9.35;;
56299;SDS011;42209;6.376;-10.782;2022-12-28T05:46:43;11.50;;;9.32;;
56299;SDS011;42209;6.376;-10.782;2022-12-28T05:49:11;12.18;;;10.40;;
56299;SDS011;42209;6.376;-10.782;2022-12-28T05:51:39;12.75;;;10.18;;
56299;SDS011;42209;6.376;-10.782;2022-12-28T05:54:08;10.18;;;9.13;;
56299;SDS011;42209;6.376;-10.782;2022-12-28T05:56:36;9.90;;;8.60;;
56299;SDS011;42209;6.376;-10.782;2022-12-28T05:59:05;9.35;;;8.40;;
56299;SDS011;42209;6.376;-10.782;2022-12-28T06:01:35;10.27;;;8.77;;
56299;SDS011;42209;6.376;-10.782;2022-12-28T06:04:13;10.35;;;8.18;;
56299;SDS011;42209;6.376;-10.782;2022-12-28T06:06:43;9.13;;;7.60;;
56299;SDS011;42209;6.376;-10.782;2022-12-28T06:09:12;9.95;;;8.65;;
56299;SDS011;42209;6.376;-10.782;2022-12-28T06:11:42;10.30;;;8.55;;
56299;SDS011;42209;6.376;-10.782;2022-12-28T06:14:10;10.48;;;8.25;;
56299;SDS011;42209;6.376;-10.782;2022-12-28T06:16:39;8.85;;;8.02;;
56299;SDS011;42209;6.376;-10.782;2022-12-28T06:19:09;9.30;;;7.95;;
56299;SDS011;42209;6.376;-10.782;2022-12-28T06:21:39;9.55;;;8.63;;
56299;SDS011;42209;6.376;-10.782;2022-12-28T06:24:08;8.75;;;7.95;;
56299;SDS011;42209;6.376;-10.782;2022-12-28T06:26:37;9.93;;;8.93;;
56299;SDS011;42209;6.376;-10.782;2022-12-28T06:29:07;9.32;;;8.32;;
56299;SDS011;42209;6.376;-10.782;2022-12-28T06:31:36;9.13;;;7.93;;
56299;SDS011;42209;6.376;-10.782;2022-12-28T06:34:07;9.15;;;8.05;;
56299;SDS011;42209;6.376;-10.782;2022-12-28T06:36:36;8.82;;;7.75;;
56299;SDS011;42209;6.376;-10.782;2022-12-28T06:39:07;9.43;;;7.93;;
56299;SDS011;42209;6.376;-10.782;2022-12-28T06:41:38;8.55;;;7.75;;
56299;SDS011;42209;6.376;-10.782;2022-12-28T06:44:08;8.80;;;7.85;;
56299;SDS011;42209;6.376;-10.782;2022-12-28T06:46:38;10.90;;;9.10;;
56299;SDS011;42209;6.376;-10.782;2022-12-28T06:49:06;9.80;;;7.55;;
56299;SDS011;42209;6.376;-10.782;2022-12-28T06:51:35;12.95;;;10.05;;
56299;SDS011;42209;6.376;-10.782;2022-12-28T06:54:05;13.38;;;10.38;;
56299;SDS011;42209;6.376;-10.782;2022-12-28T06:56:34;17.35;;;10.70;;
56299;SDS011;42209;6.376;-10.782;2022-12-28T06:59:03;12.38;;;11.05;;
56299;SDS011;42209;6.376;-10.782;2022-12-28T07:04:02;15.90;;;11.00;;
56299;SDS011;42209;6.376;-10.782;2022-12-28T07:06:33;11.80;;;9.10;;
56299;SDS011;42209;6.376;-10.782;2022-12-28T07:09:14;10.73;;;8.98;;
56299;SDS011;42209;6.376;-10.782;2022-12-28T07:11:43;11.63;;;8.90;;
56299;SDS011;42209;6.376;-10.782;2022-12-28T07:14:12;12.75;;;9.30;;
56299;SDS011;42209;6.376;-10.782;2022-12-28T07:16:40;13.18;;;10.75;;
56299;SDS011;42209;6.376;-10.782;2022-12-28T07:19:09;17.23;;;12.05;;
56299;SDS011;42209;6.376;-10.782;2022-12-28T07:21:37;14.13;;;10.23;;
56299;SDS011;42209;6.376;-10.782;2022-12-28T07:24:06;14.10;;;9.30;;
56299;SDS011;42209;6.376;-10.782;2022-12-28T07:26:35;11.25;;;8.18;;
56299;SDS011;42209;6.376;-10.782;2022-12-28T07:29:05;10.75;;;8.32;;
56299;SDS011;42209;6.376;-10.782;2022-12-28T07:31:36;13.43;;;8.27;;
56299;SDS011;42209;6.376;-10.782;2022-12-28T07:34:12;8.82;;;7.60;;
56299;SDS011;42209;6.376;-10.782;2022-12-28T07:36:41;13.30;;;8.55;;
56299;SDS011;42209;6.376;-10.782;2022-12-28T07:41:38;9.67;;;7.63;;
56299;SDS011;42209;6.376;-10.782;2022-12-28T07:44:08;13.90;;;8.35;;
56299;SDS011;42209;6.376;-10.782;2022-12-28T07:46:36;9.07;;;7.57;;
56299;SDS011;42209;6.376;-10.782;2022-12-28T07:49:05;11.07;;;7.43;;
56299;SDS011;42209;6.376;-10.782;2022-12-28T07:54:02;10.68;;;6.97;;
56299;SDS011;42209;6.376;-10.782;2022-12-28T07:56:32;8.60;;;7.68;;
56299;SDS011;42209;6.376;-10.782;2022-12-28T07:59:00;12.13;;;7.57;;
56299;SDS011;42209;6.376;-10.782;2022-12-28T08:01:30;9.05;;;6.57;;
56299;SDS011;42209;6.376;-10.782;2022-12-28T08:04:02;11.10;;;6.40;;
56299;SDS011;42209;6.376;-10.782;2022-12-28T08:06:34;8.05;;;7.25;;
56299;SDS011;42209;6.376;-10.782;2022-12-28T08:09:04;7.90;;;6.97;;
56299;SDS011;42209;6.376;-10.782;2022-12-28T08:11:35;8.82;;;7.05;;
56299;SDS011;42209;6.376;-10.782;2022-12-28T08:14:05;9.93;;;7.70;;
56299;SDS011;42209;6.376;-10.782;2022-12-28T08:16:38;13.40;;;7.53;;
56299;SDS011;42209;6.376;-10.782;2022-12-28T08:19:08;10.18;;;8.10;;
56299;SDS011;42209;6.376;-10.782;2022-12-28T08:21:37;12.27;;;8.55;;
56299;SDS011;42209;6.376;-10.782;2022-12-28T08:24:12;11.93;;;7.38;;
56299;SDS011;42209;6.376;-10.782;2022-12-28T08:26:42;9.73;;;7.90;;
56299;SDS011;42209;6.376;-10.782;2022-12-28T08:29:13;10.55;;;7.35;;
56299;SDS011;42209;6.376;-10.782;2022-12-28T08:31:45;8.57;;;7.38;;
56299;SDS011;42209;6.376;-10.782;2022-12-28T08:36:46;12.65;;;6.97;;
56299;SDS011;42209;6.376;-10.782;2022-12-28T08:39:14;11.27;;;6.90;;
56299;SDS011;42209;6.376;-10.782;2022-12-28T08:41:43;7.88;;;7.03;;
56299;SDS011;42209;6.376;-10.782;2022-12-28T08:44:11;9.00;;;6.57;;
56299;SDS011;42209;6.376;-10.782;2022-12-28T08:49:08;8.50;;;7.75;;
56299;SDS011;42209;6.376;-10.782;2022-12-28T08:51:37;8.75;;;7.18;;
56299;SDS011;42209;6.376;-10.782;2022-12-28T08:54:07;10.63;;;6.72;;
56299;SDS011;42209;6.376;-10.782;2022-12-28T08:56:37;10.00;;;8.10;;
56299;SDS011;42209;6.376;-10.782;2022-12-28T08:59:06;10.02;;;7.95;;
56299;SDS011;42209;6.376;-10.782;2022-12-28T09:01:36;15.70;;;10.35;;
56299;SDS011;42209;6.376;-10.782;2022-12-28T09:04:15;11.85;;;9.35;;
56299;SDS011;42209;6.376;-10.782;2022-12-28T09:06:45;15.90;;;10.02;;
56299;SDS011;42209;6.376;-10.782;2022-12-28T09:11:44;15.10;;;11.05;;
56299;SDS011;42209;6.376;-10.782;2022-12-28T09:14:13;13.00;;;10.80;;
56299;SDS011;42209;6.376;-10.782;2022-12-28T09:16:49;13.23;;;9.90;;
56299;SDS011;42209;6.376;-10.782;2022-12-28T09:19:20;11.00;;;9.82;;
56299;SDS011;42209;6.376;-10.782;2022-12-28T09:21:49;12.07;;;10.77;;
56299;SDS011;42209;6.376;-10.782;2022-12-28T09:24:18;14.50;;;10.57;;
56299;SDS011;42209;6.376;-10.782;2022-12-28T09:26:47;16.67;;;11.40;;
56299;SDS011;42209;6.376;-10.782;2022-12-28T09:29:15;13.35;;;10.48;;
56299;SDS011;42209;6.376;-10.782;2022-12-28T09:31:44;11.70;;;10.23;;
56299;SDS011;42209;6.376;-10.782;2022-12-28T09:34:12;11.98;;;9.25;;
56299;SDS011;42209;6.376;-10.782;2022-12-28T09:37:00;12.20;;;10.07;;
56299;SDS011;42209;6.376;-10.782;2022-12-28T09:39:29;10.35;;;8.88;;
56299;SDS011;42209;6.376;-10.782;2022-12-28T09:47:33;11.57;;;9.43;;
56299;SDS011;42209;6.376;-10.782;2022-12-28T09:52:45;10.52;;;7.40;;
56299;SDS011;42209;6.376;-10.782;2022-12-28T09:55:18;9.27;;;8.32;;
56299;SDS011;42209;6.376;-10.782;2022-12-28T09:57:49;10.75;;;8.52;;
56299;SDS011;42209;6.376;-10.782;2022-12-28T10:03:13;8.70;;;7.85;;
56299;SDS011;42209;6.376;-10.782;2022-12-28T10:05:51;9.75;;;7.95;;
56299;SDS011;42209;6.376;-10.782;2022-12-28T10:08:21;8.20;;;7.30;;
56299;SDS011;42209;6.376;-10.782;2022-12-28T10:10:51;9.98;;;7.88;;
56299;SDS011;42209;6.376;-10.782;2022-12-28T10:13:23;8.32;;;7.53;;
56299;SDS011;42209;6.376;-10.782;2022-12-28T10:16:17;9.38;;;6.80;;
56299;SDS011;42209;6.376;-10.782;2022-12-28T10:18:47;8.68;;;7.78;;
56299;SDS011;42209;6.376;-10.782;2022-12-28T10:21:16;8.45;;;7.43;;
56299;SDS011;42209;6.376;-10.782;2022-12-28T10:23:50;10.07;;;7.45;;
56299;SDS011;42209;6.376;-10.782;2022-12-28T10:26:41;9.30;;;7.78;;
56299;SDS011;42209;6.376;-10.782;2022-12-28T10:29:18;8.90;;;6.97;;
56299;SDS011;42209;6.376;-10.782;2022-12-28T10:32:22;8.65;;;7.75;;
56299;SDS011;42209;6.376;-10.782;2022-12-28T10:34:53;9.85;;;7.10;;
56299;SDS011;42209;6.376;-10.782;2022-12-28T10:37:28;9.20;;;7.72;;
56299;SDS011;42209;6.376;-10.782;2022-12-28T10:39:59;11.77;;;7.75;;
56299;SDS011;42209;6.376;-10.782;2022-12-28T10:42:45;9.77;;;7.50;;
56299;SDS011;42209;6.376;-10.782;2022-12-28T10:45:20;9.35;;;7.35;;
56299;SDS011;42209;6.376;-10.782;2022-12-28T10:47:52;7.47;;;6.78;;
56299;SDS011;42209;6.376;-10.782;2022-12-28T10:53:15;9.20;;;8.30;;
56299;SDS011;42209;6.376;-10.782;2022-12-28T10:55:44;9.00;;;6.80;;
56299;SDS011;42209;6.376;-10.782;2022-12-28T10:58:21;7.57;;;6.95;;
56299;SDS011;42209;6.376;-10.782;2022-12-28T11:00:58;10.18;;;7.35;;
56299;SDS011;42209;6.376;-10.782;2022-12-28T11:03:34;9.07;;;7.30;;
56299;SDS011;42209;6.376;-10.782;2022-12-28T11:06:08;8.95;;;6.70;;
56299;SDS011;42209;6.376;-10.782;2022-12-28T11:11:42;7.35;;;6.57;;
56299;SDS011;42209;6.376;-10.782;2022-12-28T11:14:14;7.00;;;6.30;;
56299;SDS011;42209;6.376;-10.782;2022-12-28T11:16:52;8.85;;;7.38;;
56299;SDS011;42209;6.376;-10.782;2022-12-28T11:19:21;9.00;;;7.88;;
56299;SDS011;42209;6.376;-10.782;2022-12-28T11:21:51;8.18;;;7.38;;
56299;SDS011;42209;6.376;-10.782;2022-12-28T11:24:19;10.88;;;7.13;;
56299;SDS011;42209;6.376;-10.782;2022-12-28T11:26:51;6.07;;;5.45;;
56299;SDS011;42209;6.376;-10.782;2022-12-28T11:31:59;7.15;;;6.05;;
56299;SDS011;42209;6.376;-10.782;2022-12-28T11:34:31;7.55;;;6.63;;
56299;SDS011;42209;6.376;-10.782;2022-12-28T11:37:01;6.53;;;5.93;;
56299;SDS011;42209;6.376;-10.782;2022-12-28T11:39:30;8.35;;;6.38;;
56299;SDS011;42209;6.376;-10.782;2022-12-28T11:42:08;7.43;;;6.72;;
56299;SDS011;42209;6.376;-10.782;2022-12-28T11:47:51;8.65;;;6.45;;
56299;SDS011;42209;6.376;-10.782;2022-12-28T11:50:40;6.28;;;5.65;;
56299;SDS011;42209;6.376;-10.782;2022-12-28T11:53:51;8.32;;;6.80;;
56299;SDS011;42209;6.376;-10.782;2022-12-28T11:56:11;7.25;;;6.53;;
56299;SDS011;42209;6.376;-10.782;2022-12-28T12:14:37;10.52;;;6.15;;
56299;SDS011;42209;6.376;-10.782;2022-12-28T12:17:10;7.40;;;6.63;;
56299;SDS011;42209;6.376;-10.782;2022-12-28T12:19:46;6.15;;;5.45;;
56299;SDS011;42209;6.376;-10.782;2022-12-28T12:22:19;8.02;;;5.88;;
56299;SDS011;42209;6.376;-10.782;2022-12-28T12:24:55;7.60;;;5.43;;
56299;SDS011;42209;6.376;-10.782;2022-12-28T12:27:41;6.45;;;5.85;;
56299;SDS011;42209;6.376;-10.782;2022-12-28T12:30:34;8.55;;;6.53;;
56299;SDS011;42209;6.376;-10.782;2022-12-28T12:33:04;9.95;;;6.80;;
56299;SDS011;42209;6.376;-10.782;2022-12-28T12:35:48;7.47;;;6.13;;
56299;SDS011;42209;6.376;-10.782;2022-12-28T12:49:57;6.68;;;6.05;;
56299;SDS011;42209;6.376;-10.782;2022-12-28T12:53:04;8.05;;;6.30;;
56299;SDS011;42209;6.376;-10.782;2022-12-28T12:55:52;9.75;;;6.43;;
56299;SDS011;42209;6.376;-10.782;2022-12-28T12:58:38;7.18;;;5.53;;
56299;SDS011;42209;6.376;-10.782;2022-12-28T13:02:00;7.20;;;6.43;;
56299;SDS011;42209;6.376;-10.782;2022-12-28T13:04:35;6.45;;;5.85;;
56299;SDS011;42209;6.376;-10.782;2022-12-28T13:07:04;9.02;;;7.05;;
56299;SDS011;42209;6.376;-10.782;2022-12-28T13:09:42;10.10;;;6.72;;
56299;SDS011;42209;6.376;-10.782;2022-12-28T13:12:14;12.32;;;6.63;;
56299;SDS011;42209;6.376;-10.782;2022-12-28T13:14:45;7.45;;;6.05;;
56299;SDS011;42209;6.376;-10.782;2022-12-28T13:17:20;10.32;;;6.32;;
56299;SDS011;42209;6.376;-10.782;2022-12-28T13:19:49;7.93;;;6.35;;
56299;SDS011;42209;6.376;-10.782;2022-12-28T13:22:27;8.48;;;6.35;;
56299;SDS011;42209;6.376;-10.782;2022-12-28T13:24:57;9.85;;;6.35;;
56299;SDS011;42209;6.376;-10.782;2022-12-28T13:27:29;5.78;;;5.15;;
56299;SDS011;42209;6.376;-10.782;2022-12-28T13:30:00;7.20;;;6.38;;
56299;SDS011;42209;6.376;-10.782;2022-12-28T13:32:47;7.53;;;6.15;;
56299;SDS011;42209;6.376;-10.782;2022-12-28T13:35:39;7.47;;;5.93;;
56299;SDS011;42209;6.376;-10.782;2022-12-28T13:40:36;9.18;;;6.63;;
56299;SDS011;42209;6.376;-10.782;2022-12-28T13:46:01;8.95;;;5.88;;
56299;SDS011;42209;6.376;-10.782;2022-12-28T13:48:35;9.95;;;6.93;;
56299;SDS011;42209;6.376;-10.782;2022-12-28T13:51:08;8.00;;;6.07;;
56299;SDS011;42209;6.376;-10.782;2022-12-28T13:53:39;8.68;;;6.65;;
56299;SDS011;42209;6.376;-10.782;2022-12-28T13:56:12;6.93;;;6.22;;
56299;SDS011;42209;6.376;-10.782;2022-12-28T13:58:44;9.73;;;6.85;;
56299;SDS011;42209;6.376;-10.782;2022-12-28T14:01:18;8.77;;;6.22;;
56299;SDS011;42209;6.376;-10.782;2022-12-28T14:03:50;8.82;;;6.45;;
56299;SDS011;42209;6.376;-10.782;2022-12-28T14:06:45;8.90;;;7.05;;
56299;SDS011;42209;6.376;-10.782;2022-12-28T14:11:42;10.73;;;6.50;;
56299;SDS011;42209;6.376;-10.782;2022-12-28T14:14:12;8.63;;;6.32;;
56299;SDS011;42209;6.376;-10.782;2022-12-28T14:16:41;9.07;;;6.75;;
56299;SDS011;42209;6.376;-10.782;2022-12-28T14:19:10;8.25;;;6.57;;
56299;SDS011;42209;6.376;-10.782;2022-12-28T14:21:41;8.55;;;6.60;;
56299;SDS011;42209;6.376;-10.782;2022-12-28T14:24:14;8.95;;;6.15;;
56299;SDS011;42209;6.376;-10.782;2022-12-28T14:26:53;8.85;;;5.97;;
56299;SDS011;42209;6.376;-10.782;2022-12-28T14:29:27;7.20;;;5.93;;
56299;SDS011;42209;6.376;-10.782;2022-12-28T14:32:00;13.70;;;6.68;;
56299;SDS011;42209;6.376;-10.782;2022-12-28T14:34:33;9.20;;;6.57;;
56299;SDS011;42209;6.376;-10.782;2022-12-28T14:37:03;8.70;;;6.60;;
56299;SDS011;42209;6.376;-10.782;2022-12-28T14:39:33;10.10;;;5.95;;
56299;SDS011;42209;6.376;-10.782;2022-12-28T14:42:24;10.52;;;6.95;;
56299;SDS011;42209;6.376;-10.782;2022-12-28T14:44:54;10.18;;;6.07;;
56299;SDS011;42209;6.376;-10.782;2022-12-28T14:53:20;8.13;;;6.05;;
56299;SDS011;42209;6.376;-10.782;2022-12-28T14:55:55;10.25;;;6.05;;
56299;SDS011;42209;6.376;-10.782;2022-12-28T14:58:30;7.55;;;5.95;;
56299;SDS011;42209;6.376;-10.782;2022-12-28T15:01:04;7.60;;;5.93;;
56299;SDS011;42209;6.376;-10.782;2022-12-28T15:03:50;7.07;;;5.85;;
56299;SDS011;42209;6.376;-10.782;2022-12-28T15:06:20;6.97;;;6.10;;
56299;SDS011;42209;6.376;-10.782;2022-12-28T15:08:53;8.32;;;5.85;;
56299;SDS011;42209;6.376;-10.782;2022-12-28T15:11:23;10.65;;;5.90;;
56299;SDS011;42209;6.376;-10.782;2022-12-28T15:13:53;7.15;;;5.57;;
56299;SDS011;42209;6.376;-10.782;2022-12-28T15:19:50;9.65;;;5.80;;
56299;SDS011;42209;6.376;-10.782;2022-12-28T15:22:19;8.45;;;6.75;;
56299;SDS011;42209;6.376;-10.782;2022-12-28T15:24:47;8.95;;;6.85;;
56299;SDS011;42209;6.376;-10.782;2022-12-28T15:27:15;7.18;;;6.32;;
56299;SDS011;42209;6.376;-10.782;2022-12-28T15:29:44;9.93;;;5.80;;
56299;SDS011;42209;6.376;-10.782;2022-12-28T15:32:32;13.20;;;7.18;;
56299;SDS011;42209;6.376;-10.782;2022-12-28T15:35:00;9.52;;;6.20;;
56299;SDS011;42209;6.376;-10.782;2022-12-28T15:37:29;10.02;;;7.15;;
56299;SDS011;42209;6.376;-10.782;2022-12-28T15:39:57;9.68;;;6.85;;
56299;SDS011;42209;6.376;-10.782;2022-12-28T15:42:25;8.98;;;6.57;;
56299;SDS011;42209;6.376;-10.782;2022-12-28T15:44:54;11.25;;;6.53;;
56299;SDS011;42209;6.376;-10.782;2022-12-28T15:47:22;7.82;;;5.57;;
56299;SDS011;42209;6.376;-10.782;2022-12-28T15:49:50;7.93;;;5.95;;
56299;SDS011;42209;6.376;-10.782;2022-12-28T15:52:19;6.35;;;5.72;;
56299;SDS011;42209;6.376;-10.782;2022-12-28T15:54:47;8.82;;;5.13;;
56299;SDS011;42209;6.376;-10.782;2022-12-28T15:57:15;6.43;;;5.82;;
56299;SDS011;42209;6.376;-10.782;2022-12-28T15:59:44;9.40;;;6.05;;
56299;SDS011;42209;6.376;-10.782;2022-12-28T16:02:13;8.73;;;5.82;;
56299;SDS011;42209;6.376;-10.782;2022-12-28T16:07:10;6.15;;;5.15;;
56299;SDS011;42209;6.376;-10.782;2022-12-28T16:12:06;8.52;;;6.07;;
56299;SDS011;42209;6.376;-10.782;2022-12-28T16:14:35;7.80;;;5.50;;
56299;SDS011;42209;6.376;-10.782;2022-12-28T16:17:03;6.45;;;5.85;;
56299;SDS011;42209;6.376;-10.782;2022-12-28T16:19:32;7.85;;;5.80;;
56299;SDS011;42209;6.376;-10.782;2022-12-28T16:22:00;8.85;;;6.30;;
56299;SDS011;42209;6.376;-10.782;2022-12-28T16:24:29;7.50;;;6.13;;
56299;SDS011;42209;6.376;-10.782;2022-12-28T16:26:57;7.78;;;6.18;;
56299;SDS011;42209;6.376;-10.782;2022-12-28T16:29:25;6.95;;;5.82;;
56299;SDS011;42209;6.376;-10.782;2022-12-28T16:31:54;9.35;;;6.22;;
56299;SDS011;42209;6.376;-10.782;2022-12-28T16:34:26;10.40;;;6.22;;
56299;SDS011;42209;6.376;-10.782;2022-12-28T16:36:55;9.60;;;5.93;;
56299;SDS011;42209;6.376;-10.782;2022-12-28T16:39:23;8.52;;;6.97;;
56299;SDS011;42209;6.376;-10.782;2022-12-28T16:41:54;9.02;;;5.70;;
56299;SDS011;42209;6.376;-10.782;2022-12-28T16:44:24;9.73;;;6.18;;
56299;SDS011;42209;6.376;-10.782;2022-12-28T16:46:55;6.03;;;5.10;;
56299;SDS011;42209;6.376;-10.782;2022-12-28T16:49:24;7.32;;;5.80;;